Time;durP1;ratioP1;P1;durP2;ratioP2;P2;SDS_P1;SDS_P2;PMS_P1;PMS_P2;Temp;Humidity;BMP_temperature;BMP_pressure;BME280_temperature;BME280_humidity;BME280_pressure;Samples;Min_cycle;Max_cycle;Signal;HPM_P1;HPM_P2
2023/04/04 00:02:35;;;;;;;3.27;1.80;;;2.40;91.90;;;;;;10422929;28;20303;-74
2023/04/04 00:07:35;;;;;;;3.03;1.70;;;2.40;91.80;;;;;;10383169;28;20248;-73
2023/04/04 00:12:36;;;;;;;3.27;1.67;;;2.40;92.00;;;;;;10391600;28;20240;-72
2023/04/04 00:17:36;;;;;;;4.93;2.50;;;2.30;92.30;;;;;;10365903;28;20222;-72
2023/04/04 00:22:37;;;;;;;5.10;2.13;;;2.20;93.40;;;;;;10383642;28;20228;-72
2023/04/04 00:27:37;;;;;;;4.50;2.37;;;2.20;93.20;;;;;;10385637;28;20213;-72
2023/04/04 00:32:38;;;;;;;4.07;2.00;;;2.10;93.20;;;;;;10384666;28;20225;-73
2023/04/04 00:37:39;;;;;;;10.00;2.67;;;2.00;93.20;;;;;;10388934;28;20363;-73
2023/04/04 00:42:40;;;;;;;6.33;2.47;;;2.10;93.40;;;;;;10391282;28;20214;-72
2023/04/04 00:47:42;;;;;;;6.57;2.80;;;2.10;93.80;;;;;;10424302;28;20209;-71
2023/04/04 00:52:43;;;;;;;6.17;2.30;;;2.00;94.10;;;;;;10398014;28;20636;-74
2023/04/04 00:57:44;;;;;;;3.90;2.00;;;1.90;94.60;;;;;;10423392;28;20299;-73
2023/04/04 01:02:45;;;;;;;6.20;3.27;;;1.80;94.80;;;;;;10422575;28;20217;-69
2023/04/04 01:07:48;;;;;;;3.60;2.03;;;1.80;95.00;;;;;;10396583;28;20221;-70
2023/04/04 01:12:50;;;;;;;10.60;2.83;;;1.70;95.60;;;;;;10395856;28;20236;-67
2023/04/04 01:17:55;;;;;;;4.53;2.40;;;1.70;95.30;;;;;;10390528;28;20225;-67
2023/04/04 01:22:58;;;;;;;6.60;2.73;;;1.70;95.30;;;;;;10393172;28;20319;-68
2023/04/04 01:27:59;;;;;;;7.00;2.90;;;1.70;95.50;;;;;;10390202;28;20918;-67
2023/04/04 01:33:28;;;;;;;8.17;3.77;;;1.70;95.20;;;;;;10388637;28;20224;-69
2023/04/04 01:38:42;;;;;;;6.33;2.50;;;1.70;95.70;;;;;;10420837;28;20564;-69
2023/04/04 01:43:49;;;;;;;5.40;2.13;;;1.70;95.80;;;;;;10382290;28;20221;-66
2023/04/04 01:48:49;;;;;;;3.43;1.93;;;1.60;95.90;;;;;;10391348;28;20228;-67
2023/04/04 01:53:50;;;;;;;4.77;2.37;;;1.50;96.00;;;;;;10394378;28;20246;-68
2023/04/04 01:58:51;;;;;;;6.73;2.10;;;1.50;96.20;;;;;;10420676;28;20287;-67
2023/04/04 02:03:52;;;;;;;7.20;2.80;;;1.40;96.50;;;;;;10393776;28;20220;-66
2023/04/04 02:08:53;;;;;;;4.07;2.07;;;1.40;96.30;;;;;;10387341;28;20271;-69
2023/04/04 02:13:54;;;;;;;5.17;2.07;;;1.40;96.30;;;;;;10389327;28;20237;-68
2023/04/04 02:18:54;;;;;;;3.60;2.13;;;1.40;96.60;;;;;;10392082;28;20240;-67
2023/04/04 02:23:55;;;;;;;2.93;2.07;;;1.40;96.60;;;;;;10387018;28;20327;-67
2023/04/04 02:28:58;;;;;;;6.00;2.83;;;1.40;96.60;;;;;;10413450;28;20205;-66
2023/04/04 02:34:02;;;;;;;8.03;3.57;;;1.40;97.00;;;;;;10426217;28;20499;-66
2023/04/04 02:39:04;;;;;;;7.27;2.60;;;1.30;97.20;;;;;;10390650;28;20209;-65
2023/04/04 02:44:05;;;;;;;6.00;2.90;;;1.30;97.30;;;;;;10381138;28;20245;-66
2023/04/04 02:49:05;;;;;;;8.23;3.20;;;1.30;97.30;;;;;;10389354;28;20633;-68
2023/04/04 02:54:06;;;;;;;9.97;3.40;;;1.30;97.50;;;;;;10389054;28;20307;-68
2023/04/04 02:59:07;;;;;;;8.60;2.80;;;1.20;97.90;;;;;;10383550;28;20559;-66
2023/04/04 03:04:09;;;;;;;5.13;2.47;;;1.20;98.20;;;;;;10389020;28;20228;-67
2023/04/04 03:09:10;;;;;;;7.47;2.90;;;1.10;98.40;;;;;;10420636;28;20323;-67
2023/04/04 03:14:10;;;;;;;7.10;2.73;;;1.10;98.60;;;;;;10419679;28;20255;-66
2023/04/04 03:19:11;;;;;;;8.50;3.33;;;1.10;99.00;;;;;;10387675;28;20335;-67
2023/04/04 03:24:12;;;;;;;3.50;2.30;;;1.00;99.10;;;;;;10387881;28;20228;-67
2023/04/04 03:29:12;;;;;;;3.67;2.00;;;1.00;99.00;;;;;;10388291;28;20304;-67
2023/04/04 03:34:13;;;;;;;6.10;2.50;;;0.90;99.10;;;;;;10387401;28;20228;-67
2023/04/04 03:39:14;;;;;;;2.40;1.97;;;1.00;99.10;;;;;;10388993;28;20640;-68
2023/04/04 03:44:14;;;;;;;5.83;2.17;;;0.90;99.20;;;;;;10386463;28;20217;-68
2023/04/04 03:49:15;;;;;;;3.13;1.83;;;0.90;99.20;;;;;;10420525;28;20239;-66
2023/04/04 03:54:22;;;;;;;3.23;1.80;;;0.90;99.10;;;;;;10418360;28;20283;-70
2023/04/04 03:59:23;;;;;;;2.67;2.10;;;0.90;99.10;;;;;;10390171;28;20224;-68
2023/04/04 04:04:23;;;;;;;3.17;2.30;;;0.90;99.30;;;;;;10384702;28;20744;-68
2023/04/04 04:09:24;;;;;;;3.03;2.00;;;0.90;99.60;;;;;;10421672;28;20213;-68
2023/04/04 04:14:25;;;;;;;4.73;2.90;;;0.90;99.70;;;;;;10390778;28;20230;-66
2023/04/04 04:19:25;;;;;;;6.33;2.97;;;0.80;99.90;;;;;;10399791;28;20255;-71
2023/04/04 04:24:26;;;;;;;4.47;2.60;;;0.80;99.90;;;;;;10397569;28;20217;-69
2023/04/04 04:29:26;;;;;;;4.53;2.30;;;0.80;99.90;;;;;;10392200;28;20254;-70
2023/04/04 04:34:27;;;;;;;5.73;2.40;;;0.70;99.90;;;;;;10391970;28;20221;-69
2023/04/04 04:39:28;;;;;;;4.97;2.20;;;0.70;99.90;;;;;;10392162;28;20341;-70
2023/04/04 04:44:28;;;;;;;4.37;2.03;;;0.70;99.90;;;;;;10395151;28;20219;-71
2023/04/04 04:49:29;;;;;;;6.23;2.70;;;0.60;99.90;;;;;;10388256;28;20692;-69
2023/04/04 04:54:30;;;;;;;3.33;2.10;;;0.70;99.90;;;;;;10391358;28;20380;-69
2023/04/04 04:59:30;;;;;;;4.13;2.00;;;0.70;99.90;;;;;;10392920;28;20209;-71
2023/04/04 05:04:31;;;;;;;5.10;2.57;;;0.80;99.90;;;;;;10397636;28;20221;-69
2023/04/04 05:09:31;;;;;;;7.33;3.53;;;0.70;99.90;;;;;;10392382;28;20221;-67
2023/04/04 05:14:32;;;;;;;8.03;3.57;;;0.80;99.90;;;;;;10397164;28;20232;-68
2023/04/04 05:19:33;;;;;;;6.33;3.17;;;0.80;99.90;;;;;;10389122;28;20235;-66
2023/04/04 05:24:33;;;;;;;6.10;4.00;;;0.90;99.90;;;;;;10396494;28;20316;-68
2023/04/04 05:29:34;;;;;;;6.80;3.30;;;0.90;99.90;;;;;;10389197;28;20232;-69
2023/04/04 05:34:34;;;;;;;5.70;3.30;;;1.00;99.90;;;;;;10396067;28;20221;-67
2023/04/04 05:39:38;;;;;;;8.70;3.00;;;1.10;99.90;;;;;;10395218;28;20311;-69
2023/04/04 05:44:39;;;;;;;6.93;2.90;;;1.20;99.90;;;;;;10380183;28;20757;-69
2023/04/04 05:49:39;;;;;;;6.97;2.93;;;1.30;99.90;;;;;;10395946;28;20220;-68
2023/04/04 05:54:40;;;;;;;8.57;2.93;;;1.40;99.90;;;;;;10387269;28;20229;-67
2023/04/04 05:59:41;;;;;;;6.03;2.80;;;1.50;99.90;;;;;;10395209;28;20232;-69
2023/04/04 06:04:43;;;;;;;6.60;2.80;;;1.70;99.90;;;;;;10387922;28;20363;-68
2023/04/04 06:09:44;;;;;;;7.07;2.67;;;2.00;99.90;;;;;;10387469;28;20300;-68
2023/04/04 06:14:45;;;;;;;8.20;2.90;;;5.50;95.90;;;;;;10394946;28;20218;-69
2023/04/04 06:19:45;;;;;;;6.47;2.23;;;8.40;86.20;;;;;;10392539;28;20228;-68
2023/04/04 06:24:46;;;;;;;5.07;2.40;;;10.10;75.10;;;;;;10387825;28;20217;-69
2023/04/04 06:29:46;;;;;;;4.57;2.20;;;10.00;69.20;;;;;;10390308;28;20226;-70
2023/04/04 06:34:47;;;;;;;4.50;2.20;;;7.50;75.50;;;;;;10385014;28;20216;-69
2023/04/04 06:39:47;;;;;;;7.27;2.40;;;5.90;80.80;;;;;;10424323;28;20219;-68
2023/04/04 06:44:48;;;;;;;3.00;2.03;;;4.90;85.90;;;;;;10384455;28;20220;-67
2023/04/04 06:49:49;;;;;;;9.27;2.60;;;4.40;87.80;;;;;;10415845;28;20271;-68
2023/04/04 06:54:49;;;;;;;4.60;2.07;;;4.30;89.70;;;;;;10385120;28;20267;-68
2023/04/04 06:59:50;;;;;;;3.53;1.87;;;5.00;88.10;;;;;;10423866;28;20583;-69
2023/04/04 07:04:51;;;;;;;3.53;1.63;;;5.00;85.70;;;;;;10386392;28;20223;-68
2023/04/04 07:09:51;;;;;;;3.03;1.60;;;4.70;86.70;;;;;;10391565;28;20225;-68
2023/04/04 07:14:52;;;;;;;3.93;1.80;;;5.00;87.00;;;;;;10383408;28;20221;-68
2023/04/04 07:19:52;;;;;;;4.13;1.57;;;4.80;86.30;;;;;;10391162;28;20690;-70
2023/04/04 07:24:53;;;;;;;2.17;1.63;;;4.80;87.20;;;;;;10418695;28;20217;-69
2023/04/04 07:30:00;;;;;;;2.27;1.40;;;4.80;86.60;;;;;;10422605;28;20220;-69
2023/04/04 07:35:03;;;;;;;4.13;1.50;;;4.90;85.90;;;;;;10419458;28;20769;-68
2023/04/04 07:40:07;;;;;;;2.90;1.63;;;4.90;86.40;;;;;;10423576;28;20229;-69
2023/04/04 07:45:11;;;;;;;2.70;1.43;;;5.10;82.90;;;;;;10387461;28;20589;-68
2023/04/04 07:50:15;;;;;;;3.23;1.50;;;5.50;83.00;;;;;;10388771;28;20203;-67
2023/04/04 07:55:17;;;;;;;3.13;1.50;;;6.00;79.80;;;;;;10383938;28;20208;-68
2023/04/04 08:00:20;;;;;;;3.00;1.93;;;9.00;71.20;;;;;;10386021;28;20195;-68
2023/04/04 08:05:21;;;;;;;2.80;1.80;;;12.10;58.90;;;;;;10383078;28;20173;-70
2023/04/04 08:10:21;;;;;;;2.93;1.47;;;13.20;53.90;;;;;;10380049;28;20222;-69
2023/04/04 08:15:22;;;;;;;5.13;1.90;;;13.30;50.50;;;;;;10389239;28;20315;-69
2023/04/04 08:20:22;;;;;;;3.10;1.43;;;13.70;48.10;;;;;;10414348;28;20263;-70
2023/04/04 08:25:24;;;;;;;3.37;1.50;;;13.90;49.00;;;;;;10423267;28;20194;-70
2023/04/04 08:30:24;;;;;;;2.37;1.50;;;14.40;47.20;;;;;;10383298;28;20249;-69
2023/04/04 08:35:25;;;;;;;3.97;1.67;;;14.50;44.90;;;;;;10381052;28;20230;-68
2023/04/04 08:40:25;;;;;;;3.90;2.00;;;15.60;43.80;;;;;;10375836;28;20227;-68
2023/04/04 08:45:29;;;;;;;3.63;1.80;;;15.60;43.40;;;;;;10389183;28;20234;-69
2023/04/04 08:50:31;;;;;;;2.97;1.97;;;14.80;44.40;;;;;;10381409;28;20274;-71
2023/04/04 08:55:31;;;;;;;2.23;1.60;;;14.80;44.00;;;;;;10411359;28;20276;-71
2023/04/04 09:00:32;;;;;;;3.70;1.87;;;16.70;40.90;;;;;;10427502;28;20222;-68
2023/04/04 09:05:34;;;;;;;5.07;1.87;;;14.90;43.30;;;;;;10390585;28;20218;-68
2023/04/04 09:10:36;;;;;;;3.77;1.83;;;16.60;42.30;;;;;;10397298;28;20740;-68
2023/04/04 09:15:40;;;;;;;5.90;1.80;;;19.50;38.70;;;;;;10389323;28;20676;-69
2023/04/04 09:20:46;;;;;;;2.77;1.67;;;18.80;37.10;;;;;;10380694;28;20232;-69
2023/04/04 09:25:53;;;;;;;4.23;2.03;;;18.80;35.20;;;;;;10396422;28;20239;-69
2023/04/04 09:30:54;;;;;;;3.60;2.17;;;18.60;37.20;;;;;;10391224;28;20228;-69
2023/04/04 09:35:57;;;;;;;5.33;2.27;;;17.80;36.70;;;;;;10394968;28;20262;-68
2023/04/04 09:40:58;;;;;;;6.37;2.10;;;19.10;35.40;;;;;;10423318;28;20689;-70
2023/04/04 09:45:59;;;;;;;4.70;2.07;;;19.20;33.80;;;;;;10393576;28;20275;-68
2023/04/04 09:51:04;;;;;;;3.23;2.30;;;18.00;35.30;;;;;;10428435;28;20609;-68
2023/04/04 09:56:05;;;;;;;3.63;1.80;;;20.20;32.20;;;;;;10391188;28;20231;-68
2023/04/04 10:01:09;;;;;;;3.53;2.07;;;20.40;33.60;;;;;;10392003;28;20689;-70
2023/04/04 10:06:09;;;;;;;2.70;2.13;;;19.90;32.40;;;;;;10423659;28;20228;-69
2023/04/04 10:11:10;;;;;;;3.47;1.93;;;19.80;33.30;;;;;;10389816;28;20232;-68
2023/04/04 10:16:12;;;;;;;6.03;2.03;;;18.20;34.10;;;;;;10392264;28;20223;-68
2023/04/04 10:21:16;;;;;;;2.60;1.70;;;20.40;34.20;;;;;;10389753;28;20229;-69
2023/04/04 10:26:17;;;;;;;4.83;1.60;;;22.60;28.90;;;;;;10391316;28;20267;-67
2023/04/04 10:31:24;;;;;;;4.33;1.77;;;21.00;29.50;;;;;;10386136;28;20696;-69
2023/04/04 10:36:29;;;;;;;6.13;2.00;;;20.40;29.70;;;;;;10387394;28;20324;-68
2023/04/04 10:41:31;;;;;;;5.47;1.90;;;19.80;30.00;;;;;;10383888;28;20232;-69
2023/04/04 10:46:34;;;;;;;2.53;1.77;;;19.60;30.80;;;;;;10394377;28;20615;-68
2023/04/04 10:51:35;;;;;;;3.03;1.67;;;18.70;31.30;;;;;;10416801;28;20217;-69
2023/04/04 10:56:36;;;;;;;2.97;1.70;;;20.10;30.70;;;;;;10391942;28;20232;-68
2023/04/04 11:01:47;;;;;;;2.60;1.70;;;19.30;30.30;;;;;;10385793;28;20719;-69
2023/04/04 11:07:06;;;;;;;3.53;2.10;;;19.50;30.30;;;;;;10379110;28;20229;-69
2023/04/04 11:12:09;;;;;;;4.87;2.00;;;19.30;31.20;;;;;;10387502;28;20227;-67
2023/04/04 11:17:12;;;;;;;3.03;1.53;;;18.40;31.70;;;;;;10387131;28;20231;-69
2023/04/04 11:22:13;;;;;;;3.40;1.90;;;16.30;34.30;;;;;;10388875;28;20261;-68
2023/04/04 11:27:14;;;;;;;5.33;1.73;;;14.30;39.50;;;;;;10419098;28;20225;-69
2023/04/04 11:32:42;;;;;;;3.07;1.60;;;12.50;42.40;;;;;;10387992;28;20301;-68
2023/04/04 11:37:52;;;;;;;3.57;1.57;;;11.50;43.20;;;;;;10377389;28;20225;-69
2023/04/04 11:42:54;;;;;;;3.03;1.80;;;11.40;45.20;;;;;;10383668;28;20725;-69
2023/04/04 11:47:57;;;;;;;2.13;1.63;;;11.00;45.30;;;;;;10384125;28;20228;-69
2023/04/04 11:52:57;;;;;;;3.00;1.57;;;10.60;47.20;;;;;;10389410;28;20221;-69
2023/04/04 11:58:11;;;;;;;4.20;1.90;;;10.10;47.10;;;;;;10386615;28;20219;-69
2023/04/04 12:03:15;;;;;;;2.47;1.43;;;10.20;48.50;;;;;;10391606;28;20227;-68
2023/04/04 12:08:16;;;;;;;3.27;1.70;;;10.60;47.00;;;;;;10409820;28;20925;-67
2023/04/04 12:13:20;;;;;;;2.57;1.80;;;10.80;47.20;;;;;;10388847;28;20224;-68
2023/04/04 12:18:21;;;;;;;3.27;1.80;;;10.90;47.20;;;;;;10384913;28;20887;-69
2023/04/04 12:23:22;;;;;;;4.37;2.23;;;10.80;47.60;;;;;;10387606;28;20734;-69
2023/04/04 12:28:23;;;;;;;4.47;1.40;;;10.20;47.50;;;;;;10422507;28;20232;-67
2023/04/04 12:33:24;;;;;;;2.70;1.63;;;10.10;49.00;;;;;;10383264;28;20214;-69
2023/04/04 12:38:25;;;;;;;5.63;2.10;;;10.30;49.50;;;;;;10394619;28;20227;-68
2023/04/04 12:43:28;;;;;;;3.10;1.60;;;10.40;48.80;;;;;;10380315;28;20232;-70
2023/04/04 12:48:29;;;;;;;4.27;2.00;;;10.50;48.50;;;;;;10395924;28;20220;-70
2023/04/04 12:53:31;;;;;;;4.43;1.60;;;10.60;48.70;;;;;;10397266;28;20221;-67
2023/04/04 12:58:32;;;;;;;3.00;1.53;;;10.60;48.50;;;;;;10391031;28;20221;-68
2023/04/04 13:03:33;;;;;;;3.50;1.83;;;10.50;47.70;;;;;;10395966;28;20235;-69
2023/04/04 13:08:34;;;;;;;2.87;1.90;;;10.50;48.50;;;;;;10389261;28;20263;-70
2023/04/04 13:13:40;;;;;;;3.23;1.60;;;10.60;49.10;;;;;;10429024;28;20278;-69
2023/04/04 13:18:43;;;;;;;2.13;1.30;;;10.30;48.80;;;;;;10381418;28;20328;-71
2023/04/04 13:23:44;;;;;;;1.83;1.40;;;10.30;49.80;;;;;;10387948;28;20320;-69
2023/04/04 13:28:44;;;;;;;3.00;1.47;;;10.50;48.10;;;;;;10396970;28;20311;-70
2023/04/04 13:33:45;;;;;;;3.13;1.60;;;10.50;48.60;;;;;;10396355;28;20221;-70
2023/04/04 13:38:45;;;;;;;2.80;1.60;;;10.60;48.50;;;;;;10389875;28;20221;-69
2023/04/04 13:43:46;;;;;;;4.13;1.90;;;10.60;49.20;;;;;;10393752;28;20724;-68
2023/04/04 13:48:46;;;;;;;4.67;1.90;;;10.50;48.30;;;;;;10389700;28;20304;-68
2023/04/04 13:53:47;;;;;;;3.37;1.40;;;10.40;48.40;;;;;;10428096;28;20226;-69
2023/04/04 13:58:49;;;;;;;3.83;1.70;;;10.30;49.10;;;;;;10426071;28;20315;-68
2023/04/04 14:03:53;;;;;;;2.73;1.67;;;10.50;49.70;;;;;;10385402;28;20220;-69
2023/04/04 14:08:54;;;;;;;2.73;1.70;;;10.50;49.30;;;;;;10391974;28;20270;-69
2023/04/04 14:13:55;;;;;;;3.10;1.60;;;10.30;48.60;;;;;;10389316;28;20250;-69
2023/04/04 14:18:56;;;;;;;3.37;1.90;;;10.20;50.10;;;;;;10392255;28;20752;-69
2023/04/04 14:23:57;;;;;;;5.00;1.90;;;10.10;48.90;;;;;;10388833;28;20229;-68
2023/04/04 14:28:57;;;;;;;3.70;1.67;;;10.10;49.80;;;;;;10420671;28;20244;-68
2023/04/04 14:33:58;;;;;;;2.97;1.33;;;10.40;50.00;;;;;;10425419;28;20212;-70
2023/04/04 14:38:58;;;;;;;3.67;1.67;;;10.50;49.50;;;;;;10419984;28;20227;-69
2023/04/04 14:43:59;;;;;;;4.17;1.70;;;10.40;49.50;;;;;;10388818;28;20240;-69
2023/04/04 14:49:05;;;;;;;2.33;1.50;;;10.20;49.60;;;;;;10384842;28;20218;-69
2023/04/04 14:54:05;;;;;;;2.37;1.60;;;10.40;49.90;;;;;;10389276;28;20272;-67
2023/04/04 14:59:06;;;;;;;2.67;1.87;;;10.50;49.70;;;;;;10386779;28;20279;-68
2023/04/04 15:04:07;;;;;;;2.83;1.83;;;10.30;48.60;;;;;;10389837;28;20239;-68
2023/04/04 15:09:08;;;;;;;2.27;2.00;;;10.30;50.10;;;;;;10388795;28;20765;-69
2023/04/04 15:14:09;;;;;;;3.97;2.10;;;10.40;50.80;;;;;;10386755;28;20227;-69
2023/04/04 15:19:10;;;;;;;3.97;1.67;;;10.60;50.70;;;;;;10383843;28;20240;-68
2023/04/04 15:24:10;;;;;;;1.90;1.50;;;10.50;50.50;;;;;;10384799;28;20232;-68
2023/04/04 15:29:11;;;;;;;3.73;1.70;;;10.40;49.80;;;;;;10387742;28;20213;-69
2023/04/04 15:34:12;;;;;;;2.30;1.17;;;10.50;51.20;;;;;;10420258;28;20217;-68
2023/04/04 15:39:12;;;;;;;3.73;1.83;;;10.40;49.70;;;;;;10419181;28;20225;-68
2023/04/04 15:44:13;;;;;;;3.10;1.60;;;10.30;50.50;;;;;;10388057;28;20228;-69
2023/04/04 15:49:13;;;;;;;7.90;1.67;;;10.30;50.10;;;;;;10385000;28;20300;-69
2023/04/04 15:54:14;;;;;;;4.03;1.77;;;10.40;50.60;;;;;;10388055;28;20556;-69
2023/04/04 15:59:15;;;;;;;3.17;1.80;;;10.50;50.40;;;;;;10386046;28;20268;-69
2023/04/04 16:04:15;;;;;;;4.20;1.70;;;10.50;51.20;;;;;;10379459;28;20228;-69
2023/04/04 16:09:16;;;;;;;3.00;1.77;;;10.50;50.40;;;;;;10420838;28;20220;-68
2023/04/04 16:14:16;;;;;;;3.53;1.90;;;10.30;51.40;;;;;;10384099;28;20620;-68
2023/04/04 16:19:17;;;;;;;3.17;1.80;;;10.20;51.50;;;;;;10394505;28;20236;-67
2023/04/04 16:24:17;;;;;;;3.57;2.10;;;10.10;51.40;;;;;;10378392;28;20232;-66
2023/04/04 16:29:19;;;;;;;6.90;1.90;;;10.10;57.50;;;;;;10408133;28;20220;-68
2023/04/04 16:34:19;;;;;;;6.57;2.17;;;10.10;56.40;;;;;;10383266;28;20225;-68
2023/04/04 16:39:21;;;;;;;3.63;1.73;;;10.10;54.30;;;;;;10384141;28;20615;-67
2023/04/04 16:44:22;;;;;;;3.00;1.90;;;10.00;54.60;;;;;;10378544;28;20229;-67
2023/04/04 16:49:23;;;;;;;3.67;2.00;;;10.00;57.40;;;;;;10387722;28;20598;-68
2023/04/04 16:54:23;;;;;;;2.40;1.73;;;9.70;53.90;;;;;;10381066;28;20812;-67
2023/04/04 16:59:27;;;;;;;2.80;1.90;;;9.50;54.60;;;;;;10380771;28;20607;-69
2023/04/04 17:04:27;;;;;;;3.43;2.10;;;9.40;55.40;;;;;;10374076;28;20241;-68
2023/04/04 17:09:28;;;;;;;2.63;1.70;;;9.40;56.30;;;;;;10417136;28;20673;-68
2023/04/04 17:14:29;;;;;;;2.70;1.70;;;9.40;55.60;;;;;;10412756;28;20795;-68
2023/04/04 17:19:30;;;;;;;3.60;1.83;;;9.30;56.60;;;;;;10387690;28;20227;-68
2023/04/04 17:24:31;;;;;;;2.30;1.90;;;9.30;56.20;;;;;;10390156;28;20247;-69
2023/04/04 17:29:31;;;;;;;4.10;2.00;;;9.20;56.50;;;;;;10389099;28;20232;-69
2023/04/04 17:34:32;;;;;;;4.07;2.00;;;9.10;57.60;;;;;;10394454;28;20228;-68
2023/04/04 17:39:37;;;;;;;2.63;2.20;;;9.00;57.90;;;;;;10398649;28;20220;-70
2023/04/04 17:44:37;;;;;;;2.77;1.93;;;8.90;58.50;;;;;;10387213;28;20239;-68
2023/04/04 17:49:38;;;;;;;2.20;2.00;;;8.80;58.70;;;;;;10393360;28;20228;-68
2023/04/04 17:54:40;;;;;;;5.83;1.90;;;8.60;59.30;;;;;;10384967;28;20235;-68
2023/04/04 17:59:40;;;;;;;3.53;2.10;;;8.40;59.30;;;;;;10379286;28;20251;-70
2023/04/04 18:04:41;;;;;;;5.23;2.10;;;8.30;59.60;;;;;;10393518;28;20237;-69
2023/04/04 18:09:42;;;;;;;3.10;2.17;;;8.20;60.30;;;;;;10390383;28;20251;-69
2023/04/04 18:14:43;;;;;;;3.53;2.27;;;8.10;60.80;;;;;;10395111;28;20723;-68
2023/04/04 18:19:45;;;;;;;3.40;2.20;;;8.00;61.60;;;;;;10389506;28;20221;-69
2023/04/04 18:24:46;;;;;;;6.00;2.13;;;7.90;62.00;;;;;;10384838;28;20276;-68
2023/04/04 18:29:46;;;;;;;3.10;2.33;;;7.80;62.80;;;;;;10385898;28;20255;-68
2023/04/04 18:34:47;;;;;;;4.70;2.90;;;7.70;64.20;;;;;;10388913;28;20587;-69
2023/04/04 18:39:47;;;;;;;3.63;2.40;;;7.60;64.00;;;;;;10390147;28;20591;-68
2023/04/04 18:44:48;;;;;;;3.70;2.23;;;7.50;64.90;;;;;;10386676;28;20306;-70
2023/04/04 18:49:48;;;;;;;4.40;2.60;;;7.40;65.80;;;;;;10392619;28;20230;-69
2023/04/04 18:54:49;;;;;;;4.53;2.40;;;7.30;66.40;;;;;;10385295;28;20213;-68
2023/04/04 18:59:50;;;;;;;5.03;2.80;;;7.20;67.30;;;;;;10378333;28;20251;-69
2023/04/04 19:04:54;;;;;;;3.80;2.60;;;7.10;67.70;;;;;;10386105;28;20235;-68
2023/04/04 19:09:56;;;;;;;4.00;2.67;;;7.10;68.50;;;;;;10383885;28;20248;-70
2023/04/04 19:14:57;;;;;;;4.93;2.30;;;7.00;69.20;;;;;;10389388;28;20303;-69
2023/04/04 19:20:01;;;;;;;8.40;3.60;;;6.90;69.80;;;;;;10410266;28;20228;-68
2023/04/04 19:25:02;;;;;;;7.33;3.43;;;6.80;70.40;;;;;;10383497;28;20286;-68
2023/04/04 19:30:32;;;;;;;7.63;2.70;;;6.70;71.10;;;;;;10387467;28;20936;-68
2023/04/04 19:36:07;;;;;;;5.47;2.50;;;6.70;70.60;;;;;;10374565;28;20229;-69
2023/04/04 19:41:31;;;;;;;3.60;2.30;;;6.60;71.50;;;;;;10383394;28;20246;-68
2023/04/04 19:46:33;;;;;;;4.40;2.50;;;6.50;71.70;;;;;;10415417;28;20223;-69
2023/04/04 19:51:50;;;;;;;4.70;2.30;;;6.40;73.00;;;;;;10383102;28;20225;-69
2023/04/04 19:56:56;;;;;;;3.70;2.30;;;6.40;73.00;;;;;;10375999;28;20221;-68
2023/04/04 20:01:56;;;;;;;5.07;2.90;;;6.30;71.60;;;;;;10386603;28;20247;-69
2023/04/04 20:06:57;;;;;;;4.07;2.93;;;6.20;71.70;;;;;;10368514;28;20573;-68
2023/04/04 20:11:57;;;;;;;3.73;2.30;;;6.20;71.80;;;;;;10377642;28;20216;-70
2023/04/04 20:17:01;;;;;;;3.93;2.10;;;6.20;71.90;;;;;;10383109;28;20643;-71
2023/04/04 20:22:02;;;;;;;3.43;2.50;;;6.10;72.10;;;;;;10385891;28;20227;-69
2023/04/04 20:27:05;;;;;;;4.63;2.43;;;6.00;72.50;;;;;;10389689;28;20695;-70
2023/04/04 20:32:08;;;;;;;4.20;2.50;;;5.90;72.30;;;;;;10373593;28;20726;-69
2023/04/04 20:37:24;;;;;;;3.97;2.73;;;5.90;72.60;;;;;;10383424;28;20236;-68
2023/04/04 20:42:28;;;;;;;7.83;3.17;;;5.80;73.20;;;;;;10385785;28;20224;-74
2023/04/04 20:47:56;;;;;;;4.30;2.80;;;5.70;73.40;;;;;;10388340;28;20219;-68
2023/04/04 20:53:02;;;;;;;5.50;3.07;;;5.70;73.70;;;;;;10378293;28;20232;-68
2023/04/04 20:58:02;;;;;;;8.27;3.13;;;5.70;74.30;;;;;;10387472;28;20224;-68
2023/04/04 21:03:30;;;;;;;5.67;3.13;;;5.60;75.10;;;;;;10394388;28;20225;-69
2023/04/04 21:08:44;;;;;;;3.17;2.60;;;5.50;75.00;;;;;;10423479;28;20300;-74
2023/04/04 21:13:46;;;;;;;4.90;2.97;;;5.40;75.50;;;;;;10380414;28;20351;-71
2023/04/04 21:18:46;;;;;;;6.63;3.07;;;5.20;75.70;;;;;;10393040;28;20216;-71
2023/04/04 21:23:55;;;;;;;4.60;2.47;;;5.20;76.80;;;;;;10422768;28;20735;-73
2023/04/04 21:28:57;;;;;;;4.27;2.83;;;5.20;76.70;;;;;;10395437;28;20217;-71
2023/04/04 21:34:05;;;;;;;4.30;2.10;;;5.20;76.80;;;;;;10388251;28;20344;-72
2023/04/04 21:39:14;;;;;;;4.30;2.33;;;5.20;76.60;;;;;;10388960;28;20344;-67
2023/04/04 21:44:15;;;;;;;3.93;2.53;;;5.20;76.00;;;;;;10388447;28;20228;-70
2023/04/04 21:49:18;;;;;;;3.70;2.10;;;5.40;75.60;;;;;;10392749;28;20239;-71
2023/04/04 21:54:19;;;;;;;4.40;2.30;;;5.40;74.80;;;;;;10416184;28;20220;-71
2023/04/04 21:59:20;;;;;;;5.13;2.40;;;5.40;74.90;;;;;;10389093;28;20221;-70
2023/04/04 22:04:23;;;;;;;5.13;2.80;;;5.40;74.60;;;;;;10385536;28;20438;-68
2023/04/04 22:09:24;;;;;;;5.53;2.83;;;5.30;74.40;;;;;;10383417;28;20213;-67
2023/04/04 22:14:26;;;;;;;2.33;2.00;;;5.30;74.00;;;;;;10373247;28;20220;-67
2023/04/04 22:19:33;;;;;;;3.20;2.20;;;5.30;74.30;;;;;;10373132;28;20220;-67
2023/04/04 22:24:34;;;;;;;4.50;2.67;;;5.40;73.50;;;;;;10374431;28;20220;-69
2023/04/04 22:29:34;;;;;;;4.20;2.27;;;5.30;74.20;;;;;;10379372;28;20209;-66
2023/04/04 22:34:35;;;;;;;3.87;2.33;;;5.40;74.10;;;;;;10386441;28;20225;-67
2023/04/04 22:39:36;;;;;;;3.53;2.43;;;5.30;73.80;;;;;;10385804;28;20213;-66
2023/04/04 22:44:37;;;;;;;5.13;2.40;;;5.30;74.40;;;;;;10388520;28;20308;-67
2023/04/04 22:49:47;;;;;;;3.23;2.20;;;5.30;74.70;;;;;;10385232;28;20228;-68
2023/04/04 22:54:47;;;;;;;4.60;2.30;;;5.30;73.80;;;;;;10370604;28;20670;-71
2023/04/04 22:59:51;;;;;;;4.13;2.10;;;5.20;73.60;;;;;;10385267;28;20221;-66
2023/04/04 23:04:51;;;;;;;2.90;2.20;;;5.20;74.10;;;;;;10389067;28;20644;-65
2023/04/04 23:09:52;;;;;;;4.17;2.70;;;5.20;74.60;;;;;;10386260;28;20283;-66
2023/04/04 23:14:52;;;;;;;3.50;2.50;;;5.20;77.00;;;;;;10390376;28;20233;-66
2023/04/04 23:19:53;;;;;;;6.87;2.97;;;5.10;77.80;;;;;;10410166;28;20704;-67
2023/04/04 23:24:54;;;;;;;4.90;2.67;;;5.00;78.60;;;;;;10422762;28;20239;-67
2023/04/04 23:29:55;;;;;;;5.90;2.83;;;4.90;79.10;;;;;;10384269;28;20690;-66
2023/04/04 23:34:56;;;;;;;4.13;2.77;;;4.90;79.80;;;;;;10423696;28;20919;-67
2023/04/04 23:39:57;;;;;;;4.83;3.17;;;4.80;80.30;;;;;;10384743;28;20217;-66
2023/04/04 23:44:59;;;;;;;3.90;2.60;;;4.70;81.10;;;;;;10389060;28;20270;-66
2023/04/04 23:50:00;;;;;;;5.87;2.90;;;4.60;81.20;;;;;;10380023;28;20235;-67
2023/04/04 23:55:01;;;;;;;4.60;2.80;;;4.50;81.30;;;;;;10384366;28;20225;-65
